sensor_id;sensor_type;location;lat;lon;timestamp;P1;durP1;ratioP1;P2;durP2;ratioP2
14235;SDS011;7202;50.718;7.072;2023-01-16T00:01:31;1.58;;;0.70;;
14235;SDS011;7202;50.718;7.072;2023-01-16T00:04:00;2.08;;;1.00;;
14235;SDS011;7202;50.718;7.072;2023-01-16T00:06:28;3.95;;;0.70;;
14235;SDS011;7202;50.718;7.072;2023-01-16T00:08:57;1.48;;;0.63;;
14235;SDS011;7202;50.718;7.072;2023-01-16T00:11:27;3.25;;;0.65;;
14235;SDS011;7202;50.718;7.072;2023-01-16T00:13:56;2.03;;;0.80;;
14235;SDS011;7202;50.718;7.072;2023-01-16T00:16:25;3.28;;;0.98;;
14235;SDS011;7202;50.718;7.072;2023-01-16T00:18:54;3.10;;;0.80;;
14235;SDS011;7202;50.718;7.072;2023-01-16T00:21:23;1.90;;;0.70;;
14235;SDS011;7202;50.718;7.072;2023-01-16T00:23:53;1.90;;;0.82;;
14235;SDS011;7202;50.718;7.072;2023-01-16T00:26:22;1.95;;;0.80;;
14235;SDS011;7202;50.718;7.072;2023-01-16T00:28:52;1.95;;;0.70;;
14235;SDS011;7202;50.718;7.072;2023-01-16T00:31:21;2.63;;;0.90;;
14235;SDS011;7202;50.718;7.072;2023-01-16T00:33:53;2.78;;;0.80;;
14235;SDS011;7202;50.718;7.072;2023-01-16T00:36:21;1.55;;;0.93;;
14235;SDS011;7202;50.718;7.072;2023-01-16T00:38:50;1.60;;;0.60;;
14235;SDS011;7202;50.718;7.072;2023-01-16T00:41:19;3.65;;;0.73;;
14235;SDS011;7202;50.718;7.072;2023-01-16T00:43:47;2.90;;;0.90;;
14235;SDS011;7202;50.718;7.072;2023-01-16T00:46:17;3.15;;;0.70;;
14235;SDS011;7202;50.718;7.072;2023-01-16T00:48:46;1.27;;;0.70;;
14235;SDS011;7202;50.718;7.072;2023-01-16T00:51:14;1.60;;;0.75;;
14235;SDS011;7202;50.718;7.072;2023-01-16T00:53:43;3.58;;;0.95;;
14235;SDS011;7202;50.718;7.072;2023-01-16T00:56:12;4.18;;;1.00;;
14235;SDS011;7202;50.718;7.072;2023-01-16T00:58:40;1.45;;;0.70;;
14235;SDS011;7202;50.718;7.072;2023-01-16T01:01:09;2.63;;;0.65;;
14235;SDS011;7202;50.718;7.072;2023-01-16T01:03:41;2.17;;;0.90;;
14235;SDS011;7202;50.718;7.072;2023-01-16T01:06:10;2.03;;;0.60;;
14235;SDS011;7202;50.718;7.072;2023-01-16T01:08:39;2.35;;;0.68;;
14235;SDS011;7202;50.718;7.072;2023-01-16T01:11:08;2.78;;;0.65;;
14235;SDS011;7202;50.718;7.072;2023-01-16T01:13:38;2.25;;;0.70;;
14235;SDS011;7202;50.718;7.072;2023-01-16T01:16:07;2.40;;;0.80;;
14235;SDS011;7202;50.718;7.072;2023-01-16T01:18:36;1.20;;;0.70;;
14235;SDS011;7202;50.718;7.072;2023-01-16T01:21:06;2.38;;;0.90;;
14235;SDS011;7202;50.718;7.072;2023-01-16T01:23:35;1.00;;;0.60;;
14235;SDS011;7202;50.718;7.072;2023-01-16T01:26:07;1.23;;;0.60;;
14235;SDS011;7202;50.718;7.072;2023-01-16T01:28:36;1.52;;;0.43;;
14235;SDS011;7202;50.718;7.072;2023-01-16T01:31:05;1.55;;;0.50;;
14235;SDS011;7202;50.718;7.072;2023-01-16T01:33:35;1.85;;;0.60;;
14235;SDS011;7202;50.718;7.072;2023-01-16T01:36:04;2.03;;;0.52;;
14235;SDS011;7202;50.718;7.072;2023-01-16T01:38:35;1.13;;;0.65;;
14235;SDS011;7202;50.718;7.072;2023-01-16T01:41:04;1.70;;;0.57;;
14235;SDS011;7202;50.718;7.072;2023-01-16T01:43:39;2.03;;;0.70;;
14235;SDS011;7202;50.718;7.072;2023-01-16T01:46:13;2.40;;;0.80;;
14235;SDS011;7202;50.718;7.072;2023-01-16T01:48:49;1.33;;;0.50;;
14235;SDS011;7202;50.718;7.072;2023-01-16T01:51:23;0.95;;;0.50;;
14235;SDS011;7202;50.718;7.072;2023-01-16T01:53:56;3.17;;;0.73;;
14235;SDS011;7202;50.718;7.072;2023-01-16T01:56:26;1.20;;;0.60;;
14235;SDS011;7202;50.718;7.072;2023-01-16T01:59:01;1.20;;;0.60;;
14235;SDS011;7202;50.718;7.072;2023-01-16T02:01:33;1.48;;;0.50;;
14235;SDS011;7202;50.718;7.072;2023-01-16T02:04:04;1.70;;;0.40;;
14235;SDS011;7202;50.718;7.072;2023-01-16T02:06:39;1.48;;;0.60;;
14235;SDS011;7202;50.718;7.072;2023-01-16T02:09:12;2.72;;;0.40;;
14235;SDS011;7202;50.718;7.072;2023-01-16T02:11:43;2.80;;;0.68;;
14235;SDS011;7202;50.718;7.072;2023-01-16T02:14:17;1.25;;;0.60;;
14235;SDS011;7202;50.718;7.072;2023-01-16T02:16:47;3.55;;;0.57;;
14235;SDS011;7202;50.718;7.072;2023-01-16T02:19:38;2.47;;;0.52;;
14235;SDS011;7202;50.718;7.072;2023-01-16T02:22:23;5.90;;;0.60;;
14235;SDS011;7202;50.718;7.072;2023-01-16T02:31:37;2.15;;;0.60;;
14235;SDS011;7202;50.718;7.072;2023-01-16T02:34:17;1.80;;;0.75;;
14235;SDS011;7202;50.718;7.072;2023-01-16T02:36:59;2.03;;;0.80;;
14235;SDS011;7202;50.718;7.072;2023-01-16T02:39:35;1.45;;;0.70;;
14235;SDS011;7202;50.718;7.072;2023-01-16T02:42:10;0.90;;;0.60;;
14235;SDS011;7202;50.718;7.072;2023-01-16T02:44:48;1.35;;;0.55;;
14235;SDS011;7202;50.718;7.072;2023-01-16T02:47:23;1.80;;;0.70;;
14235;SDS011;7202;50.718;7.072;2023-01-16T02:49:57;2.30;;;0.90;;
14235;SDS011;7202;50.718;7.072;2023-01-16T02:52:48;1.63;;;0.65;;
14235;SDS011;7202;50.718;7.072;2023-01-16T02:55:26;3.97;;;0.68;;
14235;SDS011;7202;50.718;7.072;2023-01-16T02:58:00;4.05;;;0.88;;
14235;SDS011;7202;50.718;7.072;2023-01-16T03:00:32;1.92;;;0.93;;
14235;SDS011;7202;50.718;7.072;2023-01-16T03:03:04;3.53;;;0.80;;
14235;SDS011;7202;50.718;7.072;2023-01-16T03:05:36;3.72;;;1.30;;
14235;SDS011;7202;50.718;7.072;2023-01-16T03:08:18;3.17;;;0.70;;
14235;SDS011;7202;50.718;7.072;2023-01-16T03:11:10;1.85;;;0.95;;
14235;SDS011;7202;50.718;7.072;2023-01-16T03:14:00;2.58;;;0.60;;
14235;SDS011;7202;50.718;7.072;2023-01-16T03:16:47;2.63;;;0.85;;
14235;SDS011;7202;50.718;7.072;2023-01-16T03:19:31;1.75;;;0.70;;
14235;SDS011;7202;50.718;7.072;2023-01-16T03:22:11;4.63;;;0.77;;
14235;SDS011;7202;50.718;7.072;2023-01-16T03:24:48;3.72;;;0.80;;
14235;SDS011;7202;50.718;7.072;2023-01-16T03:27:29;3.88;;;0.90;;
14235;SDS011;7202;50.718;7.072;2023-01-16T03:30:07;2.40;;;1.08;;
14235;SDS011;7202;50.718;7.072;2023-01-16T03:32:39;2.08;;;0.73;;
14235;SDS011;7202;50.718;7.072;2023-01-16T03:35:15;1.52;;;0.70;;
14235;SDS011;7202;50.718;7.072;2023-01-16T03:37:48;1.25;;;0.60;;
14235;SDS011;7202;50.718;7.072;2023-01-16T03:40:21;2.28;;;0.82;;
14235;SDS011;7202;50.718;7.072;2023-01-16T03:42:55;2.97;;;0.82;;
14235;SDS011;7202;50.718;7.072;2023-01-16T03:45:31;1.95;;;0.70;;
14235;SDS011;7202;50.718;7.072;2023-01-16T03:48:05;1.58;;;0.50;;
14235;SDS011;7202;50.718;7.072;2023-01-16T03:50:39;1.50;;;0.60;;
14235;SDS011;7202;50.718;7.072;2023-01-16T03:53:11;2.60;;;1.00;;
14235;SDS011;7202;50.718;7.072;2023-01-16T03:55:44;1.33;;;0.60;;
14235;SDS011;7202;50.718;7.072;2023-01-16T03:58:21;2.20;;;0.57;;
14235;SDS011;7202;50.718;7.072;2023-01-16T04:00:58;4.88;;;0.60;;
14235;SDS011;7202;50.718;7.072;2023-01-16T04:03:34;2.53;;;0.85;;
14235;SDS011;7202;50.718;7.072;2023-01-16T04:06:09;2.42;;;0.65;;
14235;SDS011;7202;50.718;7.072;2023-01-16T04:08:42;2.28;;;0.73;;
14235;SDS011;7202;50.718;7.072;2023-01-16T04:11:12;2.00;;;0.70;;
14235;SDS011;7202;50.718;7.072;2023-01-16T04:13:45;3.53;;;0.60;;
14235;SDS011;7202;50.718;7.072;2023-01-16T04:16:16;3.53;;;0.70;;
14235;SDS011;7202;50.718;7.072;2023-01-16T04:18:45;2.22;;;0.70;;
14235;SDS011;7202;50.718;7.072;2023-01-16T04:21:17;1.98;;;0.60;;
14235;SDS011;7202;50.718;7.072;2023-01-16T04:23:45;4.45;;;0.80;;
14235;SDS011;7202;50.718;7.072;2023-01-16T04:26:14;0.75;;;0.40;;
14235;SDS011;7202;50.718;7.072;2023-01-16T04:28:42;3.22;;;0.63;;
14235;SDS011;7202;50.718;7.072;2023-01-16T04:31:11;1.60;;;0.60;;
14235;SDS011;7202;50.718;7.072;2023-01-16T04:33:40;3.05;;;0.75;;
14235;SDS011;7202;50.718;7.072;2023-01-16T04:36:08;2.53;;;0.70;;
14235;SDS011;7202;50.718;7.072;2023-01-16T04:38:38;2.78;;;0.75;;
14235;SDS011;7202;50.718;7.072;2023-01-16T04:41:07;1.45;;;0.50;;
14235;SDS011;7202;50.718;7.072;2023-01-16T04:43:36;2.08;;;0.68;;
14235;SDS011;7202;50.718;7.072;2023-01-16T04:46:04;1.73;;;0.75;;
14235;SDS011;7202;50.718;7.072;2023-01-16T04:48:33;2.50;;;0.77;;
14235;SDS011;7202;50.718;7.072;2023-01-16T04:51:02;3.20;;;0.60;;
14235;SDS011;7202;50.718;7.072;2023-01-16T04:53:30;3.95;;;0.88;;
14235;SDS011;7202;50.718;7.072;2023-01-16T04:56:00;1.45;;;0.60;;
14235;SDS011;7202;50.718;7.072;2023-01-16T04:58:29;1.00;;;0.70;;
14235;SDS011;7202;50.718;7.072;2023-01-16T05:00:58;3.10;;;0.60;;
14235;SDS011;7202;50.718;7.072;2023-01-16T05:03:26;2.05;;;0.60;;
14235;SDS011;7202;50.718;7.072;2023-01-16T05:05:55;3.25;;;0.60;;
14235;SDS011;7202;50.718;7.072;2023-01-16T05:08:24;3.20;;;0.82;;
14235;SDS011;7202;50.718;7.072;2023-01-16T05:10:55;1.98;;;0.60;;
14235;SDS011;7202;50.718;7.072;2023-01-16T05:13:29;2.42;;;0.60;;
14235;SDS011;7202;50.718;7.072;2023-01-16T05:15:58;2.63;;;0.52;;
14235;SDS011;7202;50.718;7.072;2023-01-16T05:18:26;0.73;;;0.50;;
14235;SDS011;7202;50.718;7.072;2023-01-16T05:20:55;2.30;;;0.70;;
14235;SDS011;7202;50.718;7.072;2023-01-16T05:23:23;2.58;;;0.50;;
14235;SDS011;7202;50.718;7.072;2023-01-16T05:25:52;1.88;;;0.60;;
14235;SDS011;7202;50.718;7.072;2023-01-16T05:28:21;1.65;;;0.90;;
14235;SDS011;7202;50.718;7.072;2023-01-16T05:30:51;1.70;;;0.73;;
14235;SDS011;7202;50.718;7.072;2023-01-16T05:33:20;2.95;;;0.63;;
14235;SDS011;7202;50.718;7.072;2023-01-16T05:35:48;2.15;;;0.50;;
14235;SDS011;7202;50.718;7.072;2023-01-16T05:38:18;3.40;;;0.73;;
14235;SDS011;7202;50.718;7.072;2023-01-16T05:40:47;3.58;;;0.82;;
14235;SDS011;7202;50.718;7.072;2023-01-16T05:43:16;1.35;;;0.60;;
14235;SDS011;7202;50.718;7.072;2023-01-16T05:45:45;2.22;;;0.63;;
14235;SDS011;7202;50.718;7.072;2023-01-16T05:48:15;1.02;;;0.60;;
14235;SDS011;7202;50.718;7.072;2023-01-16T05:50:43;2.13;;;0.77;;
14235;SDS011;7202;50.718;7.072;2023-01-16T05:53:12;1.92;;;0.70;;
14235;SDS011;7202;50.718;7.072;2023-01-16T05:55:42;1.20;;;0.63;;
14235;SDS011;7202;50.718;7.072;2023-01-16T05:58:12;1.23;;;0.60;;
14235;SDS011;7202;50.718;7.072;2023-01-16T06:00:42;1.20;;;0.70;;
14235;SDS011;7202;50.718;7.072;2023-01-16T06:03:11;1.92;;;1.02;;
14235;SDS011;7202;50.718;7.072;2023-01-16T06:05:43;1.40;;;0.63;;
14235;SDS011;7202;50.718;7.072;2023-01-16T06:08:12;1.10;;;0.50;;
14235;SDS011;7202;50.718;7.072;2023-01-16T06:10:40;3.72;;;0.80;;
14235;SDS011;7202;50.718;7.072;2023-01-16T06:13:11;4.68;;;0.90;;
14235;SDS011;7202;50.718;7.072;2023-01-16T06:15:39;2.00;;;0.60;;
14235;SDS011;7202;50.718;7.072;2023-01-16T06:18:10;0.95;;;0.52;;
14235;SDS011;7202;50.718;7.072;2023-01-16T06:20:40;2.33;;;1.00;;
14235;SDS011;7202;50.718;7.072;2023-01-16T06:23:11;2.22;;;0.88;;
14235;SDS011;7202;50.718;7.072;2023-01-16T06:25:39;2.35;;;0.73;;
14235;SDS011;7202;50.718;7.072;2023-01-16T06:28:09;4.88;;;0.88;;
14235;SDS011;7202;50.718;7.072;2023-01-16T06:30:37;2.38;;;0.90;;
14235;SDS011;7202;50.718;7.072;2023-01-16T06:33:06;3.28;;;0.90;;
14235;SDS011;7202;50.718;7.072;2023-01-16T06:35:34;3.42;;;0.93;;
14235;SDS011;7202;50.718;7.072;2023-01-16T06:38:03;1.85;;;1.17;;
14235;SDS011;7202;50.718;7.072;2023-01-16T06:40:33;2.42;;;1.10;;
14235;SDS011;7202;50.718;7.072;2023-01-16T06:43:02;2.22;;;1.10;;
14235;SDS011;7202;50.718;7.072;2023-01-16T06:45:30;2.80;;;1.42;;
14235;SDS011;7202;50.718;7.072;2023-01-16T06:47:59;3.28;;;1.60;;
14235;SDS011;7202;50.718;7.072;2023-01-16T06:50:28;2.30;;;1.13;;
14235;SDS011;7202;50.718;7.072;2023-01-16T06:52:57;1.92;;;1.00;;
14235;SDS011;7202;50.718;7.072;2023-01-16T06:55:26;3.33;;;1.00;;
14235;SDS011;7202;50.718;7.072;2023-01-16T06:57:56;4.60;;;1.27;;
14235;SDS011;7202;50.718;7.072;2023-01-16T07:00:24;1.65;;;0.95;;
14235;SDS011;7202;50.718;7.072;2023-01-16T07:02:54;2.47;;;1.10;;
14235;SDS011;7202;50.718;7.072;2023-01-16T07:05:24;4.93;;;1.15;;
14235;SDS011;7202;50.718;7.072;2023-01-16T07:07:55;3.42;;;0.98;;
14235;SDS011;7202;50.718;7.072;2023-01-16T07:10:24;2.80;;;1.10;;
14235;SDS011;7202;50.718;7.072;2023-01-16T07:12:52;2.58;;;1.40;;
14235;SDS011;7202;50.718;7.072;2023-01-16T07:15:23;3.10;;;1.08;;
14235;SDS011;7202;50.718;7.072;2023-01-16T07:18:10;4.80;;;0.98;;
14235;SDS011;7202;50.718;7.072;2023-01-16T07:20:58;4.78;;;1.10;;
14235;SDS011;7202;50.718;7.072;2023-01-16T07:23:47;3.05;;;1.52;;
14235;SDS011;7202;50.718;7.072;2023-01-16T07:26:18;5.38;;;1.30;;
14235;SDS011;7202;50.718;7.072;2023-01-16T07:28:49;3.28;;;1.10;;
14235;SDS011;7202;50.718;7.072;2023-01-16T07:31:22;1.80;;;0.90;;
14235;SDS011;7202;50.718;7.072;2023-01-16T07:33:52;5.07;;;1.05;;
14235;SDS011;7202;50.718;7.072;2023-01-16T07:36:20;5.90;;;1.20;;
14235;SDS011;7202;50.718;7.072;2023-01-16T07:38:49;3.92;;;1.10;;
14235;SDS011;7202;50.718;7.072;2023-01-16T07:41:17;3.83;;;1.02;;
14235;SDS011;7202;50.718;7.072;2023-01-16T07:43:46;5.68;;;1.10;;
14235;SDS011;7202;50.718;7.072;2023-01-16T07:46:15;2.97;;;1.48;;
14235;SDS011;7202;50.718;7.072;2023-01-16T07:48:45;2.90;;;1.02;;
14235;SDS011;7202;50.718;7.072;2023-01-16T07:51:13;4.05;;;1.38;;
14235;SDS011;7202;50.718;7.072;2023-01-16T07:53:42;3.25;;;0.90;;
14235;SDS011;7202;50.718;7.072;2023-01-16T07:56:10;2.90;;;0.90;;
14235;SDS011;7202;50.718;7.072;2023-01-16T07:58:39;3.92;;;1.08;;
14235;SDS011;7202;50.718;7.072;2023-01-16T08:01:09;3.60;;;1.17;;
14235;SDS011;7202;50.718;7.072;2023-01-16T08:03:38;5.88;;;1.05;;
14235;SDS011;7202;50.718;7.072;2023-01-16T08:06:08;6.55;;;1.92;;
14235;SDS011;7202;50.718;7.072;2023-01-16T08:08:37;3.75;;;1.10;;
14235;SDS011;7202;50.718;7.072;2023-01-16T08:11:05;3.95;;;1.13;;
14235;SDS011;7202;50.718;7.072;2023-01-16T08:13:48;5.43;;;0.88;;
14235;SDS011;7202;50.718;7.072;2023-01-16T08:16:17;2.83;;;0.80;;
14235;SDS011;7202;50.718;7.072;2023-01-16T08:18:45;2.45;;;0.98;;
14235;SDS011;7202;50.718;7.072;2023-01-16T08:21:17;5.90;;;1.10;;
14235;SDS011;7202;50.718;7.072;2023-01-16T08:23:46;3.10;;;1.10;;
14235;SDS011;7202;50.718;7.072;2023-01-16T08:26:15;3.78;;;1.13;;
14235;SDS011;7202;50.718;7.072;2023-01-16T08:28:43;2.60;;;0.90;;
14235;SDS011;7202;50.718;7.072;2023-01-16T08:31:12;3.10;;;0.90;;
14235;SDS011;7202;50.718;7.072;2023-01-16T08:33:43;3.88;;;1.00;;
14235;SDS011;7202;50.718;7.072;2023-01-16T08:36:12;4.55;;;0.90;;
14235;SDS011;7202;50.718;7.072;2023-01-16T08:38:44;2.40;;;0.77;;
14235;SDS011;7202;50.718;7.072;2023-01-16T08:41:13;3.72;;;0.88;;
14235;SDS011;7202;50.718;7.072;2023-01-16T08:44:02;4.10;;;0.73;;
14235;SDS011;7202;50.718;7.072;2023-01-16T08:46:51;3.83;;;0.68;;
14235;SDS011;7202;50.718;7.072;2023-01-16T08:49:40;1.45;;;0.60;;
14235;SDS011;7202;50.718;7.072;2023-01-16T08:52:26;4.72;;;0.77;;
14235;SDS011;7202;50.718;7.072;2023-01-16T08:54:58;1.38;;;0.70;;
14235;SDS011;7202;50.718;7.072;2023-01-16T08:57:27;2.67;;;0.65;;
14235;SDS011;7202;50.718;7.072;2023-01-16T08:59:56;2.33;;;0.63;;
14235;SDS011;7202;50.718;7.072;2023-01-16T09:02:26;1.13;;;0.70;;
14235;SDS011;7202;50.718;7.072;2023-01-16T09:05:01;2.65;;;0.80;;
14235;SDS011;7202;50.718;7.072;2023-01-16T09:07:29;1.17;;;0.68;;
14235;SDS011;7202;50.718;7.072;2023-01-16T09:10:00;1.67;;;0.80;;
14235;SDS011;7202;50.718;7.072;2023-01-16T09:12:28;2.35;;;0.80;;
14235;SDS011;7202;50.718;7.072;2023-01-16T09:15:14;1.83;;;0.77;;
14235;SDS011;7202;50.718;7.072;2023-01-16T09:17:43;1.15;;;0.55;;
14235;SDS011;7202;50.718;7.072;2023-01-16T09:20:11;2.15;;;0.65;;
14235;SDS011;7202;50.718;7.072;2023-01-16T09:22:40;2.20;;;0.70;;
14235;SDS011;7202;50.718;7.072;2023-01-16T09:25:10;2.67;;;0.68;;
14235;SDS011;7202;50.718;7.072;2023-01-16T09:27:39;1.77;;;0.60;;
14235;SDS011;7202;50.718;7.072;2023-01-16T09:30:08;2.90;;;0.70;;
14235;SDS011;7202;50.718;7.072;2023-01-16T09:32:37;1.40;;;0.60;;
14235;SDS011;7202;50.718;7.072;2023-01-16T09:35:06;1.30;;;0.60;;
14235;SDS011;7202;50.718;7.072;2023-01-16T09:37:35;0.50;;;0.40;;
14235;SDS011;7202;50.718;7.072;2023-01-16T09:40:04;1.95;;;0.50;;
14235;SDS011;7202;50.718;7.072;2023-01-16T09:42:39;3.55;;;0.60;;
14235;SDS011;7202;50.718;7.072;2023-01-16T09:45:35;1.70;;;0.70;;
14235;SDS011;7202;50.718;7.072;2023-01-16T09:48:07;0.95;;;0.30;;
14235;SDS011;7202;50.718;7.072;2023-01-16T09:50:41;1.25;;;0.43;;
14235;SDS011;7202;50.718;7.072;2023-01-16T09:53:14;1.77;;;0.70;;
14235;SDS011;7202;50.718;7.072;2023-01-16T09:56:04;1.05;;;0.52;;
14235;SDS011;7202;50.718;7.072;2023-01-16T09:58:56;1.52;;;0.40;;
14235;SDS011;7202;50.718;7.072;2023-01-16T10:01:47;1.23;;;0.50;;
14235;SDS011;7202;50.718;7.072;2023-01-16T10:04:22;1.75;;;0.85;;
14235;SDS011;7202;50.718;7.072;2023-01-16T10:06:56;0.63;;;0.40;;
14235;SDS011;7202;50.718;7.072;2023-01-16T10:10:06;1.95;;;0.40;;
14235;SDS011;7202;50.718;7.072;2023-01-16T10:12:42;0.40;;;0.30;;
14235;SDS011;7202;50.718;7.072;2023-01-16T10:15:22;2.08;;;0.82;;
14235;SDS011;7202;50.718;7.072;2023-01-16T10:18:02;0.38;;;0.30;;
14235;SDS011;7202;50.718;7.072;2023-01-16T10:20:44;0.68;;;0.50;;
14235;SDS011;7202;50.718;7.072;2023-01-16T10:23:43;0.75;;;0.60;;
14235;SDS011;7202;50.718;7.072;2023-01-16T10:26:18;1.25;;;0.50;;
14235;SDS011;7202;50.718;7.072;2023-01-16T10:28:57;1.60;;;0.68;;
14235;SDS011;7202;50.718;7.072;2023-01-16T10:31:36;2.80;;;0.50;;
14235;SDS011;7202;50.718;7.072;2023-01-16T10:34:09;1.67;;;0.50;;
14235;SDS011;7202;50.718;7.072;2023-01-16T10:36:43;0.52;;;0.50;;
14235;SDS011;7202;50.718;7.072;2023-01-16T10:39:15;0.40;;;0.40;;
14235;SDS011;7202;50.718;7.072;2023-01-16T10:41:47;1.27;;;0.50;;
14235;SDS011;7202;50.718;7.072;2023-01-16T10:44:35;0.47;;;0.30;;
14235;SDS011;7202;50.718;7.072;2023-01-16T10:47:26;2.80;;;0.75;;
14235;SDS011;7202;50.718;7.072;2023-01-16T10:50:14;0.80;;;0.40;;
14235;SDS011;7202;50.718;7.072;2023-01-16T10:53:01;1.13;;;0.40;;
14235;SDS011;7202;50.718;7.072;2023-01-16T10:55:31;1.52;;;0.40;;
14235;SDS011;7202;50.718;7.072;2023-01-16T10:58:03;0.65;;;0.40;;
14235;SDS011;7202;50.718;7.072;2023-01-16T11:00:35;0.32;;;0.30;;
14235;SDS011;7202;50.718;7.072;2023-01-16T11:03:10;0.60;;;0.57;;
14235;SDS011;7202;50.718;7.072;2023-01-16T11:05:44;0.40;;;0.30;;
14235;SDS011;7202;50.718;7.072;2023-01-16T11:08:13;0.98;;;0.50;;
14235;SDS011;7202;50.718;7.072;2023-01-16T11:10:44;0.90;;;0.40;;
14235;SDS011;7202;50.718;7.072;2023-01-16T11:13:16;1.00;;;0.70;;
14235;SDS011;7202;50.718;7.072;2023-01-16T11:16:16;1.08;;;0.50;;
14235;SDS011;7202;50.718;7.072;2023-01-16T11:19:19;0.80;;;0.50;;
14235;SDS011;7202;50.718;7.072;2023-01-16T11:21:49;0.57;;;0.50;;
14235;SDS011;7202;50.718;7.072;2023-01-16T11:24:21;1.00;;;0.60;;
14235;SDS011;7202;50.718;7.072;2023-01-16T11:26:51;0.73;;;0.35;;
14235;SDS011;7202;50.718;7.072;2023-01-16T11:29:23;0.82;;;0.77;;
14235;SDS011;7202;50.718;7.072;2023-01-16T11:31:57;0.60;;;0.40;;
14235;SDS011;7202;50.718;7.072;2023-01-16T11:34:29;1.35;;;0.40;;
14235;SDS011;7202;50.718;7.072;2023-01-16T11:36:59;2.95;;;0.60;;
14235;SDS011;7202;50.718;7.072;2023-01-16T11:39:31;0.88;;;0.50;;
14235;SDS011;7202;50.718;7.072;2023-01-16T11:42:03;0.50;;;0.40;;
14235;SDS011;7202;50.718;7.072;2023-01-16T11:44:59;1.08;;;0.52;;
14235;SDS011;7202;50.718;7.072;2023-01-16T11:47:56;2.45;;;0.60;;
14235;SDS011;7202;50.718;7.072;2023-01-16T11:50:31;1.33;;;0.50;;
14235;SDS011;7202;50.718;7.072;2023-01-16T11:53:02;0.60;;;0.50;;
14235;SDS011;7202;50.718;7.072;2023-01-16T11:55:32;1.20;;;0.68;;
14235;SDS011;7202;50.718;7.072;2023-01-16T11:58:06;1.88;;;0.70;;
14235;SDS011;7202;50.718;7.072;2023-01-16T12:00:44;1.10;;;0.73;;
14235;SDS011;7202;50.718;7.072;2023-01-16T12:06:20;0.73;;;0.50;;
14235;SDS011;7202;50.718;7.072;2023-01-16T12:09:16;0.85;;;0.60;;
14235;SDS011;7202;50.718;7.072;2023-01-16T12:15:04;2.30;;;0.60;;
14235;SDS011;7202;50.718;7.072;2023-01-16T12:17:45;1.33;;;0.80;;
14235;SDS011;7202;50.718;7.072;2023-01-16T12:20:28;0.60;;;0.50;;
14235;SDS011;7202;50.718;7.072;2023-01-16T12:23:05;0.80;;;0.68;;
14235;SDS011;7202;50.718;7.072;2023-01-16T12:25:54;4.10;;;1.13;;
14235;SDS011;7202;50.718;7.072;2023-01-16T12:28:32;3.00;;;0.80;;
14235;SDS011;7202;50.718;7.072;2023-01-16T12:31:19;6.88;;;0.95;;
14235;SDS011;7202;50.718;7.072;2023-01-16T12:34:10;6.30;;;1.40;;
14235;SDS011;7202;50.718;7.072;2023-01-16T12:36:56;2.70;;;1.00;;
14235;SDS011;7202;50.718;7.072;2023-01-16T12:39:37;3.05;;;0.77;;
14235;SDS011;7202;50.718;7.072;2023-01-16T12:42:15;2.63;;;1.13;;
14235;SDS011;7202;50.718;7.072;2023-01-16T12:45:15;1.17;;;0.77;;
14235;SDS011;7202;50.718;7.072;2023-01-16T12:48:00;4.47;;;0.80;;
14235;SDS011;7202;50.718;7.072;2023-01-16T12:50:43;1.17;;;0.70;;
14235;SDS011;7202;50.718;7.072;2023-01-16T12:53:28;2.65;;;0.93;;
14235;SDS011;7202;50.718;7.072;2023-01-16T12:56:24;3.92;;;0.70;;
14235;SDS011;7202;50.718;7.072;2023-01-16T12:59:03;2.10;;;0.80;;
14235;SDS011;7202;50.718;7.072;2023-01-16T13:01:40;0.77;;;0.63;;
14235;SDS011;7202;50.718;7.072;2023-01-16T13:04:13;1.50;;;0.80;;
14235;SDS011;7202;50.718;7.072;2023-01-16T13:06:46;1.38;;;0.77;;
14235;SDS011;7202;50.718;7.072;2023-01-16T13:09:17;1.42;;;0.70;;
14235;SDS011;7202;50.718;7.072;2023-01-16T13:11:57;1.35;;;0.60;;
14235;SDS011;7202;50.718;7.072;2023-01-16T13:14:49;1.00;;;0.52;;
14235;SDS011;7202;50.718;7.072;2023-01-16T13:17:23;1.27;;;0.57;;
14235;SDS011;7202;50.718;7.072;2023-01-16T13:20:00;1.20;;;0.70;;
14235;SDS011;7202;50.718;7.072;2023-01-16T13:22:35;2.28;;;0.50;;
14235;SDS011;7202;50.718;7.072;2023-01-16T13:25:13;0.77;;;0.50;;
14235;SDS011;7202;50.718;7.072;2023-01-16T13:27:48;2.47;;;0.50;;
14235;SDS011;7202;50.718;7.072;2023-01-16T13:30:22;1.23;;;0.60;;
14235;SDS011;7202;50.718;7.072;2023-01-16T13:32:51;1.38;;;0.43;;
14235;SDS011;7202;50.718;7.072;2023-01-16T13:35:24;1.60;;;0.50;;
14235;SDS011;7202;50.718;7.072;2023-01-16T13:38:04;4.30;;;0.50;;
14235;SDS011;7202;50.718;7.072;2023-01-16T13:43:49;1.17;;;0.70;;
14235;SDS011;7202;50.718;7.072;2023-01-16T13:46:40;0.93;;;0.40;;
14235;SDS011;7202;50.718;7.072;2023-01-16T13:49:11;0.75;;;0.45;;
14235;SDS011;7202;50.718;7.072;2023-01-16T13:51:47;3.00;;;0.55;;
14235;SDS011;7202;50.718;7.072;2023-01-16T13:54:18;0.60;;;0.50;;
14235;SDS011;7202;50.718;7.072;2023-01-16T13:56:55;0.95;;;0.52;;
14235;SDS011;7202;50.718;7.072;2023-01-16T13:59:29;0.88;;;0.60;;
14235;SDS011;7202;50.718;7.072;2023-01-16T14:02:17;0.50;;;0.47;;
14235;SDS011;7202;50.718;7.072;2023-01-16T14:07:45;1.60;;;0.60;;
14235;SDS011;7202;50.718;7.072;2023-01-16T14:10:38;0.60;;;0.45;;
14235;SDS011;7202;50.718;7.072;2023-01-16T14:13:13;0.77;;;0.47;;
14235;SDS011;7202;50.718;7.072;2023-01-16T14:15:53;1.05;;;0.75;;
14235;SDS011;7202;50.718;7.072;2023-01-16T14:18:41;2.05;;;0.55;;
14235;SDS011;7202;50.718;7.072;2023-01-16T14:21:16;3.05;;;0.65;;
14235;SDS011;7202;50.718;7.072;2023-01-16T14:23:48;1.08;;;0.63;;
14235;SDS011;7202;50.718;7.072;2023-01-16T14:26:34;1.65;;;0.60;;
14235;SDS011;7202;50.718;7.072;2023-01-16T14:29:11;0.70;;;0.52;;
14235;SDS011;7202;50.718;7.072;2023-01-16T14:31:49;0.80;;;0.70;;
14235;SDS011;7202;50.718;7.072;2023-01-16T14:34:22;0.82;;;0.60;;
14235;SDS011;7202;50.718;7.072;2023-01-16T14:36:54;1.90;;;0.75;;
14235;SDS011;7202;50.718;7.072;2023-01-16T14:39:30;1.58;;;0.68;;
14235;SDS011;7202;50.718;7.072;2023-01-16T14:42:02;2.53;;;0.65;;
14235;SDS011;7202;50.718;7.072;2023-01-16T14:44:58;1.00;;;0.70;;
14235;SDS011;7202;50.718;7.072;2023-01-16T14:48:11;4.85;;;0.70;;
14235;SDS011;7202;50.718;7.072;2023-01-16T14:51:00;2.88;;;0.60;;
14235;SDS011;7202;50.718;7.072;2023-01-16T14:53:56;1.15;;;0.80;;
14235;SDS011;7202;50.718;7.072;2023-01-16T14:56:45;1.02;;;0.70;;
14235;SDS011;7202;50.718;7.072;2023-01-16T14:59:18;1.15;;;0.70;;
14235;SDS011;7202;50.718;7.072;2023-01-16T15:01:53;1.63;;;0.82;;
14235;SDS011;7202;50.718;7.072;2023-01-16T15:04:47;1.92;;;1.08;;
14235;SDS011;7202;50.718;7.072;2023-01-16T15:07:22;1.05;;;0.65;;
14235;SDS011;7202;50.718;7.072;2023-01-16T15:09:58;0.60;;;0.45;;
14235;SDS011;7202;50.718;7.072;2023-01-16T15:12:37;0.90;;;0.68;;
14235;SDS011;7202;50.718;7.072;2023-01-16T15:15:18;1.27;;;0.80;;
14235;SDS011;7202;50.718;7.072;2023-01-16T15:17:49;1.20;;;0.60;;
14235;SDS011;7202;50.718;7.072;2023-01-16T15:20:38;1.70;;;0.63;;
14235;SDS011;7202;50.718;7.072;2023-01-16T15:23:25;0.68;;;0.50;;
14235;SDS011;7202;50.718;7.072;2023-01-16T15:25:59;0.82;;;0.50;;
14235;SDS011;7202;50.718;7.072;2023-01-16T15:28:56;1.02;;;0.60;;
14235;SDS011;7202;50.718;7.072;2023-01-16T15:31:39;0.98;;;0.60;;
14235;SDS011;7202;50.718;7.072;2023-01-16T15:34:18;0.30;;;0.30;;
14235;SDS011;7202;50.718;7.072;2023-01-16T15:36:50;0.73;;;0.57;;
14235;SDS011;7202;50.718;7.072;2023-01-16T15:39:20;0.85;;;0.55;;
14235;SDS011;7202;50.718;7.072;2023-01-16T15:41:53;1.20;;;0.57;;
14235;SDS011;7202;50.718;7.072;2023-01-16T15:44:42;2.03;;;0.80;;
14235;SDS011;7202;50.718;7.072;2023-01-16T15:47:37;1.67;;;0.68;;
14235;SDS011;7202;50.718;7.072;2023-01-16T15:50:44;1.08;;;0.65;;
14235;SDS011;7202;50.718;7.072;2023-01-16T15:53:21;0.75;;;0.70;;
14235;SDS011;7202;50.718;7.072;2023-01-16T15:55:52;2.15;;;1.40;;
14235;SDS011;7202;50.718;7.072;2023-01-16T15:58:25;2.35;;;0.90;;
14235;SDS011;7202;50.718;7.072;2023-01-16T16:00:54;2.80;;;1.45;;
14235;SDS011;7202;50.718;7.072;2023-01-16T16:03:28;5.47;;;2.35;;
14235;SDS011;7202;50.718;7.072;2023-01-16T16:05:59;3.95;;;1.88;;